sensor_id;sensor_type;location;lat;lon;timestamp;P1;durP1;ratioP1;P2;durP2;ratioP2
11189;SDS011;5651;50.926;4.718;2022-11-21T00:00:02;5.13;;;1.80;;
11189;SDS011;5651;50.926;4.718;2022-11-21T00:02:28;6.95;;;1.17;;
11189;SDS011;5651;50.926;4.718;2022-11-21T00:04:54;4.90;;;1.20;;
11189;SDS011;5651;50.926;4.718;2022-11-21T00:07:20;2.85;;;1.30;;
11189;SDS011;5651;50.926;4.718;2022-11-21T00:09:46;3.75;;;1.50;;
11189;SDS011;5651;50.926;4.718;2022-11-21T00:12:11;5.03;;;1.45;;
11189;SDS011;5651;50.926;4.718;2022-11-21T00:14:37;4.57;;;1.63;;
11189;SDS011;5651;50.926;4.718;2022-11-21T00:17:03;3.67;;;0.93;;
11189;SDS011;5651;50.926;4.718;2022-11-21T00:19:28;4.93;;;1.00;;
11189;SDS011;5651;50.926;4.718;2022-11-21T00:21:54;3.03;;;1.73;;
11189;SDS011;5651;50.926;4.718;2022-11-21T00:24:19;4.30;;;1.10;;
11189;SDS011;5651;50.926;4.718;2022-11-21T00:26:45;4.88;;;2.03;;
11189;SDS011;5651;50.926;4.718;2022-11-21T00:29:11;3.75;;;1.35;;
11189;SDS011;5651;50.926;4.718;2022-11-21T00:31:36;6.57;;;1.45;;
11189;SDS011;5651;50.926;4.718;2022-11-21T00:34:02;7.10;;;1.42;;
11189;SDS011;5651;50.926;4.718;2022-11-21T00:36:28;4.53;;;1.58;;
11189;SDS011;5651;50.926;4.718;2022-11-21T00:38:53;6.68;;;1.30;;
11189;SDS011;5651;50.926;4.718;2022-11-21T00:41:19;4.30;;;1.55;;
11189;SDS011;5651;50.926;4.718;2022-11-21T00:43:45;7.43;;;1.90;;
11189;SDS011;5651;50.926;4.718;2022-11-21T00:46:10;7.20;;;2.67;;
11189;SDS011;5651;50.926;4.718;2022-11-21T00:48:36;5.32;;;2.00;;
11189;SDS011;5651;50.926;4.718;2022-11-21T00:51:02;4.03;;;1.67;;
11189;SDS011;5651;50.926;4.718;2022-11-21T00:53:28;6.10;;;2.45;;
11189;SDS011;5651;50.926;4.718;2022-11-21T00:55:54;6.05;;;2.03;;
11189;SDS011;5651;50.926;4.718;2022-11-21T00:58:19;3.45;;;2.05;;
11189;SDS011;5651;50.926;4.718;2022-11-21T01:00:45;8.95;;;2.47;;
11189;SDS011;5651;50.926;4.718;2022-11-21T01:03:11;6.85;;;2.58;;
11189;SDS011;5651;50.926;4.718;2022-11-21T01:05:37;8.50;;;2.97;;
11189;SDS011;5651;50.926;4.718;2022-11-21T01:08:02;6.78;;;3.22;;
11189;SDS011;5651;50.926;4.718;2022-11-21T01:10:28;10.30;;;4.05;;
11189;SDS011;5651;50.926;4.718;2022-11-21T01:12:54;11.93;;;4.10;;
11189;SDS011;5651;50.926;4.718;2022-11-21T01:15:20;9.43;;;3.80;;
11189;SDS011;5651;50.926;4.718;2022-11-21T01:17:45;12.07;;;4.10;;
11189;SDS011;5651;50.926;4.718;2022-11-21T01:20:11;11.63;;;4.25;;
11189;SDS011;5651;50.926;4.718;2022-11-21T01:22:37;15.77;;;5.65;;
11189;SDS011;5651;50.926;4.718;2022-11-21T01:25:02;15.68;;;4.80;;
11189;SDS011;5651;50.926;4.718;2022-11-21T01:27:28;14.20;;;4.90;;
11189;SDS011;5651;50.926;4.718;2022-11-21T01:29:54;10.05;;;4.70;;
11189;SDS011;5651;50.926;4.718;2022-11-21T01:32:20;14.27;;;4.50;;
11189;SDS011;5651;50.926;4.718;2022-11-21T01:34:45;13.57;;;5.40;;
11189;SDS011;5651;50.926;4.718;2022-11-21T01:37:11;14.20;;;4.82;;
11189;SDS011;5651;50.926;4.718;2022-11-21T01:39:37;12.05;;;4.95;;
11189;SDS011;5651;50.926;4.718;2022-11-21T01:42:02;17.90;;;4.97;;
11189;SDS011;5651;50.926;4.718;2022-11-21T01:44:48;17.15;;;5.63;;
11189;SDS011;5651;50.926;4.718;2022-11-21T01:47:15;13.63;;;5.47;;
11189;SDS011;5651;50.926;4.718;2022-11-21T01:49:41;13.57;;;5.93;;
11189;SDS011;5651;50.926;4.718;2022-11-21T01:52:10;11.60;;;5.03;;
11189;SDS011;5651;50.926;4.718;2022-11-21T01:55:05;12.57;;;4.88;;
11189;SDS011;5651;50.926;4.718;2022-11-21T01:57:42;14.98;;;5.43;;
11189;SDS011;5651;50.926;4.718;2022-11-21T02:00:22;13.18;;;4.63;;
11189;SDS011;5651;50.926;4.718;2022-11-21T02:02:52;16.48;;;5.63;;
11189;SDS011;5651;50.926;4.718;2022-11-21T02:05:21;11.88;;;4.72;;
11189;SDS011;5651;50.926;4.718;2022-11-21T02:07:49;16.83;;;5.50;;
11189;SDS011;5651;50.926;4.718;2022-11-21T02:10:19;19.75;;;5.22;;
11189;SDS011;5651;50.926;4.718;2022-11-21T02:15:20;14.88;;;4.55;;
11189;SDS011;5651;50.926;4.718;2022-11-21T02:17:48;11.70;;;4.32;;
11189;SDS011;5651;50.926;4.718;2022-11-21T02:20:15;17.02;;;5.20;;
11189;SDS011;5651;50.926;4.718;2022-11-21T02:25:27;11.48;;;4.32;;
11189;SDS011;5651;50.926;4.718;2022-11-21T02:27:57;13.55;;;4.68;;
11189;SDS011;5651;50.926;4.718;2022-11-21T02:30:26;13.75;;;6.22;;
11189;SDS011;5651;50.926;4.718;2022-11-21T02:32:56;13.30;;;3.92;;
11189;SDS011;5651;50.926;4.718;2022-11-21T02:35:22;14.52;;;4.80;;
11189;SDS011;5651;50.926;4.718;2022-11-21T02:37:53;20.45;;;4.78;;
11189;SDS011;5651;50.926;4.718;2022-11-21T02:40:24;16.20;;;4.75;;
11189;SDS011;5651;50.926;4.718;2022-11-21T02:42:57;9.98;;;3.95;;
11189;SDS011;5651;50.926;4.718;2022-11-21T02:48:08;9.38;;;4.07;;
11189;SDS011;5651;50.926;4.718;2022-11-21T02:50:35;12.30;;;5.57;;
11189;SDS011;5651;50.926;4.718;2022-11-21T02:53:03;14.43;;;4.53;;
11189;SDS011;5651;50.926;4.718;2022-11-21T02:55:30;13.50;;;3.70;;
11189;SDS011;5651;50.926;4.718;2022-11-21T02:57:56;15.02;;;4.60;;
11189;SDS011;5651;50.926;4.718;2022-11-21T03:00:22;15.15;;;5.05;;
11189;SDS011;5651;50.926;4.718;2022-11-21T03:02:49;14.65;;;4.75;;
11189;SDS011;5651;50.926;4.718;2022-11-21T03:05:16;11.93;;;3.83;;
11189;SDS011;5651;50.926;4.718;2022-11-21T03:07:43;12.18;;;4.05;;
11189;SDS011;5651;50.926;4.718;2022-11-21T03:10:10;12.10;;;3.63;;
11189;SDS011;5651;50.926;4.718;2022-11-21T03:12:39;11.50;;;3.90;;
11189;SDS011;5651;50.926;4.718;2022-11-21T03:15:07;11.77;;;3.90;;
11189;SDS011;5651;50.926;4.718;2022-11-21T03:17:35;8.88;;;4.18;;
11189;SDS011;5651;50.926;4.718;2022-11-21T03:20:01;7.85;;;3.47;;
11189;SDS011;5651;50.926;4.718;2022-11-21T03:22:27;10.70;;;4.25;;
11189;SDS011;5651;50.926;4.718;2022-11-21T03:24:52;13.55;;;4.00;;
11189;SDS011;5651;50.926;4.718;2022-11-21T03:27:18;10.07;;;4.03;;
11189;SDS011;5651;50.926;4.718;2022-11-21T03:29:44;14.65;;;5.07;;
11189;SDS011;5651;50.926;4.718;2022-11-21T03:32:09;8.68;;;3.55;;
11189;SDS011;5651;50.926;4.718;2022-11-21T03:34:35;13.43;;;3.95;;
11189;SDS011;5651;50.926;4.718;2022-11-21T03:37:01;16.08;;;3.90;;
11189;SDS011;5651;50.926;4.718;2022-11-21T03:39:28;11.73;;;4.30;;
11189;SDS011;5651;50.926;4.718;2022-11-21T03:41:54;12.45;;;3.80;;
11189;SDS011;5651;50.926;4.718;2022-11-21T03:44:20;9.63;;;4.00;;
11189;SDS011;5651;50.926;4.718;2022-11-21T03:46:46;16.90;;;4.40;;
11189;SDS011;5651;50.926;4.718;2022-11-21T03:49:12;13.70;;;4.43;;
11189;SDS011;5651;50.926;4.718;2022-11-21T03:51:40;10.00;;;4.07;;
11189;SDS011;5651;50.926;4.718;2022-11-21T03:54:06;10.32;;;4.07;;
11189;SDS011;5651;50.926;4.718;2022-11-21T03:56:32;13.15;;;3.40;;
11189;SDS011;5651;50.926;4.718;2022-11-21T03:58:57;11.00;;;3.85;;
11189;SDS011;5651;50.926;4.718;2022-11-21T04:01:23;9.60;;;3.17;;
11189;SDS011;5651;50.926;4.718;2022-11-21T04:03:50;8.50;;;3.60;;
11189;SDS011;5651;50.926;4.718;2022-11-21T04:06:17;8.93;;;2.67;;
11189;SDS011;5651;50.926;4.718;2022-11-21T04:08:44;11.73;;;3.33;;
11189;SDS011;5651;50.926;4.718;2022-11-21T04:11:10;15.90;;;3.65;;
11189;SDS011;5651;50.926;4.718;2022-11-21T04:13:36;11.80;;;3.60;;
11189;SDS011;5651;50.926;4.718;2022-11-21T04:16:02;10.38;;;3.40;;
11189;SDS011;5651;50.926;4.718;2022-11-21T04:18:27;13.60;;;4.65;;
11189;SDS011;5651;50.926;4.718;2022-11-21T04:23:27;10.25;;;3.05;;
11189;SDS011;5651;50.926;4.718;2022-11-21T04:25:53;10.95;;;3.10;;
11189;SDS011;5651;50.926;4.718;2022-11-21T04:28:19;6.72;;;3.45;;
11189;SDS011;5651;50.926;4.718;2022-11-21T04:30:45;9.45;;;3.45;;
11189;SDS011;5651;50.926;4.718;2022-11-21T04:33:12;10.07;;;3.40;;
11189;SDS011;5651;50.926;4.718;2022-11-21T04:35:39;15.07;;;3.67;;
11189;SDS011;5651;50.926;4.718;2022-11-21T04:38:04;10.93;;;3.60;;
11189;SDS011;5651;50.926;4.718;2022-11-21T04:40:30;11.30;;;3.55;;
11189;SDS011;5651;50.926;4.718;2022-11-21T04:42:56;11.77;;;3.28;;
11189;SDS011;5651;50.926;4.718;2022-11-21T04:45:22;9.02;;;2.83;;
11189;SDS011;5651;50.926;4.718;2022-11-21T04:47:48;10.98;;;3.35;;
11189;SDS011;5651;50.926;4.718;2022-11-21T04:50:16;10.75;;;3.40;;
11189;SDS011;5651;50.926;4.718;2022-11-21T04:52:52;12.02;;;4.32;;
11189;SDS011;5651;50.926;4.718;2022-11-21T04:55:20;13.43;;;4.20;;
11189;SDS011;5651;50.926;4.718;2022-11-21T04:57:47;13.18;;;4.25;;
11189;SDS011;5651;50.926;4.718;2022-11-21T05:00:13;12.48;;;4.57;;
11189;SDS011;5651;50.926;4.718;2022-11-21T05:02:39;13.25;;;4.18;;
11189;SDS011;5651;50.926;4.718;2022-11-21T05:05:05;8.68;;;3.97;;
11189;SDS011;5651;50.926;4.718;2022-11-21T05:07:31;14.93;;;3.88;;
11189;SDS011;5651;50.926;4.718;2022-11-21T05:09:57;9.50;;;3.63;;
11189;SDS011;5651;50.926;4.718;2022-11-21T05:12:24;8.98;;;3.70;;
11189;SDS011;5651;50.926;4.718;2022-11-21T05:15:08;9.95;;;3.63;;
11189;SDS011;5651;50.926;4.718;2022-11-21T05:17:34;8.85;;;3.85;;
11189;SDS011;5651;50.926;4.718;2022-11-21T05:20:00;13.50;;;3.90;;
11189;SDS011;5651;50.926;4.718;2022-11-21T05:22:26;11.40;;;4.13;;
11189;SDS011;5651;50.926;4.718;2022-11-21T05:24:51;11.68;;;4.30;;
11189;SDS011;5651;50.926;4.718;2022-11-21T05:27:17;13.45;;;4.20;;
11189;SDS011;5651;50.926;4.718;2022-11-21T05:29:43;13.05;;;4.00;;
11189;SDS011;5651;50.926;4.718;2022-11-21T05:32:09;15.73;;;4.07;;
11189;SDS011;5651;50.926;4.718;2022-11-21T05:34:34;14.45;;;4.18;;
11189;SDS011;5651;50.926;4.718;2022-11-21T05:37:00;12.80;;;4.10;;
11189;SDS011;5651;50.926;4.718;2022-11-21T05:39:26;12.82;;;4.28;;
11189;SDS011;5651;50.926;4.718;2022-11-21T05:41:52;10.35;;;4.20;;
11189;SDS011;5651;50.926;4.718;2022-11-21T05:44:18;9.18;;;4.03;;
11189;SDS011;5651;50.926;4.718;2022-11-21T05:46:44;12.75;;;4.22;;
11189;SDS011;5651;50.926;4.718;2022-11-21T05:49:10;13.32;;;4.03;;
11189;SDS011;5651;50.926;4.718;2022-11-21T05:51:36;14.15;;;3.70;;
11189;SDS011;5651;50.926;4.718;2022-11-21T05:54:02;8.98;;;4.03;;
11189;SDS011;5651;50.926;4.718;2022-11-21T05:56:28;8.82;;;3.05;;
11189;SDS011;5651;50.926;4.718;2022-11-21T05:58:55;10.75;;;3.55;;
11189;SDS011;5651;50.926;4.718;2022-11-21T06:01:21;8.90;;;2.83;;
11189;SDS011;5651;50.926;4.718;2022-11-21T06:04:06;8.15;;;2.90;;
11189;SDS011;5651;50.926;4.718;2022-11-21T06:06:33;11.07;;;3.80;;
11189;SDS011;5651;50.926;4.718;2022-11-21T06:08:59;10.68;;;3.42;;
11189;SDS011;5651;50.926;4.718;2022-11-21T06:11:24;10.20;;;3.40;;
11189;SDS011;5651;50.926;4.718;2022-11-21T06:13:53;9.30;;;3.58;;
11189;SDS011;5651;50.926;4.718;2022-11-21T06:16:19;7.00;;;2.70;;
11189;SDS011;5651;50.926;4.718;2022-11-21T06:18:49;10.80;;;3.70;;
11189;SDS011;5651;50.926;4.718;2022-11-21T06:21:21;11.50;;;3.67;;
11189;SDS011;5651;50.926;4.718;2022-11-21T06:23:52;18.10;;;5.43;;
11189;SDS011;5651;50.926;4.718;2022-11-21T06:26:20;22.92;;;7.00;;
11189;SDS011;5651;50.926;4.718;2022-11-21T06:28:47;46.50;;;16.70;;
11189;SDS011;5651;50.926;4.718;2022-11-21T06:31:15;42.38;;;14.02;;
11189;SDS011;5651;50.926;4.718;2022-11-21T06:33:45;34.88;;;12.02;;
11189;SDS011;5651;50.926;4.718;2022-11-21T06:36:12;22.60;;;7.20;;
11189;SDS011;5651;50.926;4.718;2022-11-21T06:38:42;21.65;;;7.65;;
11189;SDS011;5651;50.926;4.718;2022-11-21T06:41:12;15.70;;;5.55;;
11189;SDS011;5651;50.926;4.718;2022-11-21T06:43:43;16.27;;;5.85;;
11189;SDS011;5651;50.926;4.718;2022-11-21T06:46:09;15.00;;;4.22;;
11189;SDS011;5651;50.926;4.718;2022-11-21T06:48:36;12.20;;;3.50;;
11189;SDS011;5651;50.926;4.718;2022-11-21T06:51:04;8.52;;;2.88;;
11189;SDS011;5651;50.926;4.718;2022-11-21T06:53:30;6.95;;;3.22;;
11189;SDS011;5651;50.926;4.718;2022-11-21T06:56:00;11.45;;;2.90;;
11189;SDS011;5651;50.926;4.718;2022-11-21T06:58:26;8.70;;;3.55;;
11189;SDS011;5651;50.926;4.718;2022-11-21T07:00:53;11.18;;;4.13;;
11189;SDS011;5651;50.926;4.718;2022-11-21T07:03:19;9.73;;;3.95;;
11189;SDS011;5651;50.926;4.718;2022-11-21T07:05:46;12.90;;;3.63;;
11189;SDS011;5651;50.926;4.718;2022-11-21T07:08:12;14.70;;;6.63;;
11189;SDS011;5651;50.926;4.718;2022-11-21T07:10:38;9.82;;;3.92;;
11189;SDS011;5651;50.926;4.718;2022-11-21T07:13:04;16.42;;;5.32;;
11189;SDS011;5651;50.926;4.718;2022-11-21T07:15:52;11.38;;;3.92;;
11189;SDS011;5651;50.926;4.718;2022-11-21T07:18:19;12.20;;;3.78;;
11189;SDS011;5651;50.926;4.718;2022-11-21T07:20:45;13.13;;;4.40;;
11189;SDS011;5651;50.926;4.718;2022-11-21T07:23:12;13.93;;;4.38;;
11189;SDS011;5651;50.926;4.718;2022-11-21T07:25:38;13.48;;;3.65;;
11189;SDS011;5651;50.926;4.718;2022-11-21T07:28:04;12.65;;;4.60;;
11189;SDS011;5651;50.926;4.718;2022-11-21T07:30:32;14.48;;;5.20;;
11189;SDS011;5651;50.926;4.718;2022-11-21T07:32:58;16.00;;;5.47;;
11189;SDS011;5651;50.926;4.718;2022-11-21T07:35:25;15.20;;;5.07;;
11189;SDS011;5651;50.926;4.718;2022-11-21T07:37:52;12.82;;;4.38;;
11189;SDS011;5651;50.926;4.718;2022-11-21T07:40:18;14.70;;;5.30;;
11189;SDS011;5651;50.926;4.718;2022-11-21T07:42:44;11.90;;;6.57;;
11189;SDS011;5651;50.926;4.718;2022-11-21T07:45:10;14.48;;;4.45;;
11189;SDS011;5651;50.926;4.718;2022-11-21T07:47:36;15.48;;;5.43;;
11189;SDS011;5651;50.926;4.718;2022-11-21T07:50:03;19.17;;;6.00;;
11189;SDS011;5651;50.926;4.718;2022-11-21T07:52:29;16.50;;;7.40;;
11189;SDS011;5651;50.926;4.718;2022-11-21T07:54:55;19.73;;;7.85;;
11189;SDS011;5651;50.926;4.718;2022-11-21T07:57:21;23.45;;;11.80;;
11189;SDS011;5651;50.926;4.718;2022-11-21T07:59:47;15.30;;;7.57;;
11189;SDS011;5651;50.926;4.718;2022-11-21T08:02:17;22.33;;;10.93;;
11189;SDS011;5651;50.926;4.718;2022-11-21T08:04:50;23.15;;;9.35;;
11189;SDS011;5651;50.926;4.718;2022-11-21T08:07:18;18.95;;;6.75;;
11189;SDS011;5651;50.926;4.718;2022-11-21T08:09:45;18.95;;;6.40;;
11189;SDS011;5651;50.926;4.718;2022-11-21T08:12:12;19.67;;;6.43;;
11189;SDS011;5651;50.926;4.718;2022-11-21T08:14:38;15.52;;;5.50;;
11189;SDS011;5651;50.926;4.718;2022-11-21T08:17:05;12.48;;;4.32;;
11189;SDS011;5651;50.926;4.718;2022-11-21T08:19:31;13.73;;;5.70;;
11189;SDS011;5651;50.926;4.718;2022-11-21T08:21:57;16.05;;;5.50;;
11189;SDS011;5651;50.926;4.718;2022-11-21T08:24:23;18.20;;;5.40;;
11189;SDS011;5651;50.926;4.718;2022-11-21T08:26:49;11.70;;;4.25;;
11189;SDS011;5651;50.926;4.718;2022-11-21T08:29:15;15.40;;;4.50;;
11189;SDS011;5651;50.926;4.718;2022-11-21T08:31:40;11.57;;;4.28;;
11189;SDS011;5651;50.926;4.718;2022-11-21T08:34:07;13.23;;;4.32;;
11189;SDS011;5651;50.926;4.718;2022-11-21T08:36:33;13.10;;;4.00;;
11189;SDS011;5651;50.926;4.718;2022-11-21T08:38:59;11.93;;;4.15;;
11189;SDS011;5651;50.926;4.718;2022-11-21T08:41:25;12.80;;;4.32;;
11189;SDS011;5651;50.926;4.718;2022-11-21T08:44:10;17.30;;;5.75;;
11189;SDS011;5651;50.926;4.718;2022-11-21T08:46:36;9.85;;;4.68;;
11189;SDS011;5651;50.926;4.718;2022-11-21T08:49:05;14.05;;;6.53;;
11189;SDS011;5651;50.926;4.718;2022-11-21T08:51:31;13.90;;;5.57;;
11189;SDS011;5651;50.926;4.718;2022-11-21T08:53:57;14.30;;;6.28;;
11189;SDS011;5651;50.926;4.718;2022-11-21T08:56:23;10.63;;;3.65;;
11189;SDS011;5651;50.926;4.718;2022-11-21T08:58:49;13.65;;;7.03;;
11189;SDS011;5651;50.926;4.718;2022-11-21T09:01:15;10.80;;;4.20;;
11189;SDS011;5651;50.926;4.718;2022-11-21T09:03:41;13.80;;;4.40;;
11189;SDS011;5651;50.926;4.718;2022-11-21T09:06:06;15.05;;;5.13;;
11189;SDS011;5651;50.926;4.718;2022-11-21T09:08:32;11.57;;;5.40;;
11189;SDS011;5651;50.926;4.718;2022-11-21T09:11:02;11.38;;;3.80;;
11189;SDS011;5651;50.926;4.718;2022-11-21T09:13:29;14.70;;;4.68;;
11189;SDS011;5651;50.926;4.718;2022-11-21T09:15:56;17.27;;;6.18;;
11189;SDS011;5651;50.926;4.718;2022-11-21T09:18:41;14.57;;;4.90;;
11189;SDS011;5651;50.926;4.718;2022-11-21T09:21:07;10.68;;;4.13;;
11189;SDS011;5651;50.926;4.718;2022-11-21T09:23:33;10.77;;;4.90;;
11189;SDS011;5651;50.926;4.718;2022-11-21T09:25:59;14.23;;;5.10;;
11189;SDS011;5651;50.926;4.718;2022-11-21T09:28:25;16.88;;;5.95;;
11189;SDS011;5651;50.926;4.718;2022-11-21T09:30:51;10.77;;;4.90;;
11189;SDS011;5651;50.926;4.718;2022-11-21T09:33:17;14.25;;;5.75;;
11189;SDS011;5651;50.926;4.718;2022-11-21T09:35:42;13.43;;;5.13;;
11189;SDS011;5651;50.926;4.718;2022-11-21T09:38:08;13.98;;;5.57;;
11189;SDS011;5651;50.926;4.718;2022-11-21T09:40:34;15.75;;;5.93;;
11189;SDS011;5651;50.926;4.718;2022-11-21T09:46:11;12.07;;;4.65;;
11189;SDS011;5651;50.926;4.718;2022-11-21T09:51:29;11.45;;;4.57;;
11189;SDS011;5651;50.926;4.718;2022-11-21T09:54:00;13.40;;;4.80;;
11189;SDS011;5651;50.926;4.718;2022-11-21T09:56:49;9.88;;;4.25;;
11189;SDS011;5651;50.926;4.718;2022-11-21T09:59:34;15.23;;;5.32;;
11189;SDS011;5651;50.926;4.718;2022-11-21T10:04:37;11.55;;;4.68;;
11189;SDS011;5651;50.926;4.718;2022-11-21T10:07:05;8.93;;;3.78;;
11189;SDS011;5651;50.926;4.718;2022-11-21T10:09:41;13.15;;;4.10;;
11189;SDS011;5651;50.926;4.718;2022-11-21T10:31:57;10.77;;;5.50;;
11189;SDS011;5651;50.926;4.718;2022-11-21T10:34:33;13.15;;;6.20;;
11189;SDS011;5651;50.926;4.718;2022-11-21T10:37:04;12.98;;;6.82;;
11189;SDS011;5651;50.926;4.718;2022-11-21T10:39:42;13.35;;;6.00;;
11189;SDS011;5651;50.926;4.718;2022-11-21T10:44:55;12.90;;;6.75;;
11189;SDS011;5651;50.926;4.718;2022-11-21T10:47:47;14.13;;;6.63;;
11189;SDS011;5651;50.926;4.718;2022-11-21T10:50:17;11.57;;;6.40;;
11189;SDS011;5651;50.926;4.718;2022-11-21T10:55:57;11.10;;;5.85;;
11189;SDS011;5651;50.926;4.718;2022-11-21T10:58:33;11.75;;;6.30;;
11189;SDS011;5651;50.926;4.718;2022-11-21T11:01:01;11.15;;;5.15;;
11189;SDS011;5651;50.926;4.718;2022-11-21T11:03:26;9.18;;;5.28;;
11189;SDS011;5651;50.926;4.718;2022-11-21T11:05:55;11.52;;;5.32;;
11189;SDS011;5651;50.926;4.718;2022-11-21T11:08:24;16.38;;;5.43;;
11189;SDS011;5651;50.926;4.718;2022-11-21T11:11:00;10.32;;;4.90;;
11189;SDS011;5651;50.926;4.718;2022-11-21T11:13:29;12.43;;;4.90;;
11189;SDS011;5651;50.926;4.718;2022-11-21T11:18:34;14.30;;;6.53;;
11189;SDS011;5651;50.926;4.718;2022-11-21T11:21:20;13.35;;;5.70;;
11189;SDS011;5651;50.926;4.718;2022-11-21T11:23:48;8.57;;;4.45;;
11189;SDS011;5651;50.926;4.718;2022-11-21T11:26:50;9.02;;;4.57;;
11189;SDS011;5651;50.926;4.718;2022-11-21T11:31:59;11.55;;;4.57;;
11189;SDS011;5651;50.926;4.718;2022-11-21T11:45:39;10.93;;;5.30;;
11189;SDS011;5651;50.926;4.718;2022-11-21T11:48:31;18.88;;;6.70;;
11189;SDS011;5651;50.926;4.718;2022-11-21T11:51:05;15.77;;;5.72;;
11189;SDS011;5651;50.926;4.718;2022-11-21T11:53:43;12.15;;;5.57;;
11189;SDS011;5651;50.926;4.718;2022-11-21T11:58:53;15.48;;;4.93;;
11189;SDS011;5651;50.926;4.718;2022-11-21T12:01:28;11.13;;;5.38;;
11189;SDS011;5651;50.926;4.718;2022-11-21T12:04:18;14.98;;;5.65;;
11189;SDS011;5651;50.926;4.718;2022-11-21T12:18:06;11.93;;;5.32;;
11189;SDS011;5651;50.926;4.718;2022-11-21T12:23:09;13.07;;;5.22;;
11189;SDS011;5651;50.926;4.718;2022-11-21T12:25:37;11.75;;;4.60;;
11189;SDS011;5651;50.926;4.718;2022-11-21T12:28:09;14.07;;;4.97;;
11189;SDS011;5651;50.926;4.718;2022-11-21T12:31:08;13.25;;;5.40;;
11189;SDS011;5651;50.926;4.718;2022-11-21T12:34:03;12.07;;;4.68;;
11189;SDS011;5651;50.926;4.718;2022-11-21T12:36:56;14.95;;;5.30;;
11189;SDS011;5651;50.926;4.718;2022-11-21T12:42:38;38.22;;;6.55;;
11189;SDS011;5651;50.926;4.718;2022-11-21T12:54:20;12.73;;;4.43;;
11189;SDS011;5651;50.926;4.718;2022-11-21T12:59:57;13.85;;;4.13;;
11189;SDS011;5651;50.926;4.718;2022-11-21T13:04:48;11.68;;;4.50;;
11189;SDS011;5651;50.926;4.718;2022-11-21T13:07:14;13.85;;;4.22;;
11189;SDS011;5651;50.926;4.718;2022-11-21T13:09:45;10.95;;;4.93;;
11189;SDS011;5651;50.926;4.718;2022-11-21T13:15:18;14.75;;;5.30;;
11189;SDS011;5651;50.926;4.718;2022-11-21T13:27:05;12.18;;;4.78;;
11189;SDS011;5651;50.926;4.718;2022-11-21T13:29:06;11.30;;;4.45;;
11189;SDS011;5651;50.926;4.718;2022-11-21T13:31:32;12.45;;;4.78;;
11189;SDS011;5651;50.926;4.718;2022-11-21T13:33:59;9.70;;;4.20;;
11189;SDS011;5651;50.926;4.718;2022-11-21T13:46:59;17.92;;;6.15;;
11189;SDS011;5651;50.926;4.718;2022-11-21T14:09:48;10.70;;;3.80;;
11189;SDS011;5651;50.926;4.718;2022-11-21T14:12:20;9.35;;;3.97;;
11189;SDS011;5651;50.926;4.718;2022-11-21T14:15:06;15.60;;;4.60;;
11189;SDS011;5651;50.926;4.718;2022-11-21T14:17:47;13.02;;;3.50;;
11189;SDS011;5651;50.926;4.718;2022-11-21T14:20:17;9.98;;;3.30;;
11189;SDS011;5651;50.926;4.718;2022-11-21T14:23:04;9.40;;;3.17;;
11189;SDS011;5651;50.926;4.718;2022-11-21T14:28:06;8.40;;;3.55;;
11189;SDS011;5651;50.926;4.718;2022-11-21T14:30:37;18.55;;;5.50;;
11189;SDS011;5651;50.926;4.718;2022-11-21T14:36:25;14.93;;;3.42;;
11189;SDS011;5651;50.926;4.718;2022-11-21T14:38:54;10.75;;;3.38;;
11189;SDS011;5651;50.926;4.718;2022-11-21T14:46:24;22.38;;;5.05;;
11189;SDS011;5651;50.926;4.718;2022-11-21T14:48:51;8.18;;;3.35;;
11189;SDS011;5651;50.926;4.718;2022-11-21T14:51:18;12.40;;;3.42;;
11189;SDS011;5651;50.926;4.718;2022-11-21T14:53:46;11.13;;;4.13;;
11189;SDS011;5651;50.926;4.718;2022-11-21T14:56:21;10.50;;;4.20;;
11189;SDS011;5651;50.926;4.718;2022-11-21T14:58:52;10.57;;;4.20;;
11189;SDS011;5651;50.926;4.718;2022-11-21T15:01:23;10.77;;;3.47;;
11189;SDS011;5651;50.926;4.718;2022-11-21T15:03:59;8.70;;;4.03;;
11189;SDS011;5651;50.926;4.718;2022-11-21T15:06:27;12.30;;;4.05;;
11189;SDS011;5651;50.926;4.718;2022-11-21T15:08:58;10.52;;;3.78;;
11189;SDS011;5651;50.926;4.718;2022-11-21T15:14:04;13.82;;;4.15;;
11189;SDS011;5651;50.926;4.718;2022-11-21T15:16:41;11.30;;;3.90;;
11189;SDS011;5651;50.926;4.718;2022-11-21T15:19:08;10.95;;;4.10;;
11189;SDS011;5651;50.926;4.718;2022-11-21T15:21:34;9.35;;;3.92;;
11189;SDS011;5651;50.926;4.718;2022-11-21T15:24:14;9.20;;;3.35;;
11189;SDS011;5651;50.926;4.718;2022-11-21T15:26:51;13.07;;;4.10;;
11189;SDS011;5651;50.926;4.718;2022-11-21T15:29:18;14.13;;;4.05;;
11189;SDS011;5651;50.926;4.718;2022-11-21T15:31:45;13.85;;;5.43;;
11189;SDS011;5651;50.926;4.718;2022-11-21T15:34:23;11.57;;;3.63;;
11189;SDS011;5651;50.926;4.718;2022-11-21T15:37:00;7.65;;;3.00;;
11189;SDS011;5651;50.926;4.718;2022-11-21T15:39:28;12.32;;;3.70;;
11189;SDS011;5651;50.926;4.718;2022-11-21T15:41:55;12.80;;;5.13;;
11189;SDS011;5651;50.926;4.718;2022-11-21T15:44:56;13.70;;;5.07;;
11189;SDS011;5651;50.926;4.718;2022-11-21T15:47:25;44.17;;;19.58;;
11189;SDS011;5651;50.926;4.718;2022-11-21T15:49:51;67.75;;;25.67;;
11189;SDS011;5651;50.926;4.718;2022-11-21T15:52:16;16.65;;;5.80;;
11189;SDS011;5651;50.926;4.718;2022-11-21T15:54:42;11.27;;;4.80;;
11189;SDS011;5651;50.926;4.718;2022-11-21T15:57:08;14.32;;;7.15;;
11189;SDS011;5651;50.926;4.718;2022-11-21T15:59:34;10.18;;;6.95;;
11189;SDS011;5651;50.926;4.718;2022-11-21T16:01:59;13.15;;;7.85;;
11189;SDS011;5651;50.926;4.718;2022-11-21T16:04:25;17.80;;;6.28;;
11189;SDS011;5651;50.926;4.718;2022-11-21T16:06:54;16.58;;;6.22;;
11189;SDS011;5651;50.926;4.718;2022-11-21T16:09:20;16.70;;;5.53;;
11189;SDS011;5651;50.926;4.718;2022-11-21T16:11:45;18.38;;;7.35;;
11189;SDS011;5651;50.926;4.718;2022-11-21T16:14:12;18.70;;;4.05;;
11189;SDS011;5651;50.926;4.718;2022-11-21T16:16:40;17.25;;;3.22;;
11189;SDS011;5651;50.926;4.718;2022-11-21T16:19:10;13.35;;;4.43;;
11189;SDS011;5651;50.926;4.718;2022-11-21T16:21:37;15.60;;;6.90;;
11189;SDS011;5651;50.926;4.718;2022-11-21T16:24:02;10.10;;;5.43;;
11189;SDS011;5651;50.926;4.718;2022-11-21T16:26:28;17.85;;;7.90;;
11189;SDS011;5651;50.926;4.718;2022-11-21T16:28:54;11.07;;;3.70;;
11189;SDS011;5651;50.926;4.718;2022-11-21T16:31:22;17.30;;;6.72;;
11189;SDS011;5651;50.926;4.718;2022-11-21T16:33:49;12.55;;;3.95;;
11189;SDS011;5651;50.926;4.718;2022-11-21T16:36:22;10.95;;;4.25;;
11189;SDS011;5651;50.926;4.718;2022-11-21T16:38:50;13.23;;;3.20;;
11189;SDS011;5651;50.926;4.718;2022-11-21T16:41:16;12.90;;;4.75;;
11189;SDS011;5651;50.926;4.718;2022-11-21T16:43:47;15.30;;;5.20;;
11189;SDS011;5651;50.926;4.718;2022-11-21T16:46:14;11.68;;;4.30;;
11189;SDS011;5651;50.926;4.718;2022-11-21T16:48:41;9.52;;;3.13;;
11189;SDS011;5651;50.926;4.718;2022-11-21T16:51:25;12.75;;;4.28;;
11189;SDS011;5651;50.926;4.718;2022-11-21T16:53:51;10.80;;;3.95;;
11189;SDS011;5651;50.926;4.718;2022-11-21T16:56:16;11.32;;;3.78;;
11189;SDS011;5651;50.926;4.718;2022-11-21T16:58:42;15.38;;;5.55;;
11189;SDS011;5651;50.926;4.718;2022-11-21T17:03:50;9.23;;;3.67;;
11189;SDS011;5651;50.926;4.718;2022-11-21T17:06:17;10.98;;;4.00;;
11189;SDS011;5651;50.926;4.718;2022-11-21T17:08:46;7.22;;;2.97;;
11189;SDS011;5651;50.926;4.718;2022-11-21T17:11:13;16.55;;;3.50;;
11189;SDS011;5651;50.926;4.718;2022-11-21T17:13:40;15.00;;;4.25;;
11189;SDS011;5651;50.926;4.718;2022-11-21T17:16:07;18.40;;;5.13;;
11189;SDS011;5651;50.926;4.718;2022-11-21T17:18:34;16.75;;;4.35;;
11189;SDS011;5651;50.926;4.718;2022-11-21T17:21:04;11.60;;;5.40;;
11189;SDS011;5651;50.926;4.718;2022-11-21T17:23:31;17.15;;;6.30;;
11189;SDS011;5651;50.926;4.718;2022-11-21T17:26:04;10.80;;;3.97;;
11189;SDS011;5651;50.926;4.718;2022-11-21T17:28:32;12.07;;;3.70;;
11189;SDS011;5651;50.926;4.718;2022-11-21T17:30:58;12.05;;;4.60;;
11189;SDS011;5651;50.926;4.718;2022-11-21T17:33:24;13.55;;;5.00;;